sensor_id;sensor_type;location;lat;lon;timestamp;pressure;altitude;pressure_sealevel;temperature;humidity
58385;BME280;44185;47.844;8.966;2022-10-26T00:02:00;96246.91;;;9.73;100.00
58385;BME280;44185;47.844;8.966;2022-10-26T00:04:27;96254.06;;;9.83;100.00
58385;BME280;44185;47.844;8.966;2022-10-26T00:06:52;96256.31;;;9.87;100.00
58385;BME280;44185;47.844;8.966;2022-10-26T00:09:17;96250.22;;;9.87;100.00
58385;BME280;44185;47.844;8.966;2022-10-26T00:11:42;96252.34;;;9.93;100.00
58385;BME280;44185;47.844;8.966;2022-10-26T00:14:08;96251.88;;;9.88;100.00
58385;BME280;44185;47.844;8.966;2022-10-26T00:16:33;96272.63;;;9.93;100.00
58385;BME280;44185;47.844;8.966;2022-10-26T00:18:58;96259.91;;;9.98;100.00
58385;BME280;44185;47.844;8.966;2022-10-26T00:21:25;96256.22;;;9.89;100.00
58385;BME280;44185;47.844;8.966;2022-10-26T00:23:50;96283.16;;;9.83;100.00
58385;BME280;44185;47.844;8.966;2022-10-26T00:26:15;96289.97;;;9.85;100.00
58385;BME280;44185;47.844;8.966;2022-10-26T00:28:41;96284.66;;;9.97;100.00
58385;BME280;44185;47.844;8.966;2022-10-26T00:31:06;96270.09;;;10.03;100.00
58385;BME280;44185;47.844;8.966;2022-10-26T00:33:32;96272.72;;;10.03;100.00
58385;BME280;44185;47.844;8.966;2022-10-26T00:35:58;96269.44;;;9.89;100.00
58385;BME280;44185;47.844;8.966;2022-10-26T00:38:24;96275.28;;;9.93;100.00
58385;BME280;44185;47.844;8.966;2022-10-26T00:40:50;96272.38;;;9.96;100.00
58385;BME280;44185;47.844;8.966;2022-10-26T00:43:15;96262.28;;;10.01;100.00
58385;BME280;44185;47.844;8.966;2022-10-26T00:45:57;96241.00;;;10.03;100.00
58385;BME280;44185;47.844;8.966;2022-10-26T00:48:23;96205.47;;;9.95;100.00
58385;BME280;44185;47.844;8.966;2022-10-26T00:50:50;96206.25;;;9.86;100.00
58385;BME280;44185;47.844;8.966;2022-10-26T00:53:16;96208.56;;;9.79;100.00
58385;BME280;44185;47.844;8.966;2022-10-26T00:55:44;96220.09;;;9.78;100.00
58385;BME280;44185;47.844;8.966;2022-10-26T00:58:10;96216.81;;;9.86;100.00
58385;BME280;44185;47.844;8.966;2022-10-26T01:00:36;96230.63;;;9.89;100.00
58385;BME280;44185;47.844;8.966;2022-10-26T01:03:04;96248.03;;;9.92;100.00
58385;BME280;44185;47.844;8.966;2022-10-26T01:05:30;96245.50;;;9.90;100.00
58385;BME280;44185;47.844;8.966;2022-10-26T01:07:56;96253.97;;;9.84;100.00
58385;BME280;44185;47.844;8.966;2022-10-26T01:10:22;96260.50;;;9.90;100.00
58385;BME280;44185;47.844;8.966;2022-10-26T01:12:50;96243.94;;;9.88;100.00
58385;BME280;44185;47.844;8.966;2022-10-26T01:15:16;96233.38;;;9.88;100.00
58385;BME280;44185;47.844;8.966;2022-10-26T01:17:44;96223.41;;;9.92;100.00
58385;BME280;44185;47.844;8.966;2022-10-26T01:20:24;96222.59;;;9.79;100.00
58385;BME280;44185;47.844;8.966;2022-10-26T01:22:58;96216.16;;;9.72;100.00
58385;BME280;44185;47.844;8.966;2022-10-26T01:25:38;96223.66;;;9.55;100.00
58385;BME280;44185;47.844;8.966;2022-10-26T01:28:05;96222.41;;;9.50;100.00
58385;BME280;44185;47.844;8.966;2022-10-26T01:30:34;96224.44;;;9.46;100.00
58385;BME280;44185;47.844;8.966;2022-10-26T01:33:06;96223.50;;;9.47;100.00
58385;BME280;44185;47.844;8.966;2022-10-26T01:35:34;96227.78;;;9.48;100.00
58385;BME280;44185;47.844;8.966;2022-10-26T01:38:05;96238.72;;;9.43;100.00
58385;BME280;44185;47.844;8.966;2022-10-26T01:40:35;96242.31;;;9.42;100.00
58385;BME280;44185;47.844;8.966;2022-10-26T01:43:03;96236.72;;;9.36;100.00
58385;BME280;44185;47.844;8.966;2022-10-26T01:45:29;96227.56;;;9.40;100.00
58385;BME280;44185;47.844;8.966;2022-10-26T01:47:57;96221.00;;;9.34;100.00
58385;BME280;44185;47.844;8.966;2022-10-26T01:50:23;96216.09;;;9.29;100.00
58385;BME280;44185;47.844;8.966;2022-10-26T01:52:50;96213.34;;;9.19;100.00
58385;BME280;44185;47.844;8.966;2022-10-26T01:58:30;96229.28;;;9.29;100.00
58385;BME280;44185;47.844;8.966;2022-10-26T02:01:00;96238.75;;;9.32;100.00
58385;BME280;44185;47.844;8.966;2022-10-26T02:03:32;96245.09;;;9.41;100.00
58385;BME280;44185;47.844;8.966;2022-10-26T02:06:05;96255.91;;;9.38;100.00
58385;BME280;44185;47.844;8.966;2022-10-26T02:08:45;96262.88;;;9.39;100.00
58385;BME280;44185;47.844;8.966;2022-10-26T02:11:16;96267.22;;;9.28;100.00
58385;BME280;44185;47.844;8.966;2022-10-26T02:13:46;96280.06;;;9.33;100.00
58385;BME280;44185;47.844;8.966;2022-10-26T02:16:15;96284.50;;;9.32;100.00
58385;BME280;44185;47.844;8.966;2022-10-26T02:18:44;96286.41;;;9.42;100.00
58385;BME280;44185;47.844;8.966;2022-10-26T02:21:14;96298.31;;;9.36;100.00
58385;BME280;44185;47.844;8.966;2022-10-26T02:23:41;96315.34;;;9.32;100.00
58385;BME280;44185;47.844;8.966;2022-10-26T02:26:09;96458.56;;;9.36;100.00
58385;BME280;44185;47.844;8.966;2022-10-26T02:28:37;96395.78;;;9.39;100.00
58385;BME280;44185;47.844;8.966;2022-10-26T02:31:04;96430.81;;;9.53;100.00
58385;BME280;44185;47.844;8.966;2022-10-26T02:33:32;96398.53;;;9.61;100.00
58385;BME280;44185;47.844;8.966;2022-10-26T02:36:01;96402.13;;;9.71;100.00
58385;BME280;44185;47.844;8.966;2022-10-26T02:38:28;96391.16;;;9.76;100.00
58385;BME280;44185;47.844;8.966;2022-10-26T02:40:54;96380.22;;;9.81;100.00
58385;BME280;44185;47.844;8.966;2022-10-26T02:43:20;96362.78;;;9.89;100.00
58385;BME280;44185;47.844;8.966;2022-10-26T02:45:48;96351.00;;;9.94;100.00
58385;BME280;44185;47.844;8.966;2022-10-26T02:48:15;96356.13;;;9.95;100.00
58385;BME280;44185;47.844;8.966;2022-10-26T02:50:42;96346.19;;;9.87;100.00
58385;BME280;44185;47.844;8.966;2022-10-26T02:53:13;96332.66;;;9.81;100.00
58385;BME280;44185;47.844;8.966;2022-10-26T02:55:41;96339.72;;;9.80;100.00
58385;BME280;44185;47.844;8.966;2022-10-26T02:58:10;96315.09;;;9.79;100.00
58385;BME280;44185;47.844;8.966;2022-10-26T03:00:37;96318.13;;;9.75;100.00
58385;BME280;44185;47.844;8.966;2022-10-26T03:03:02;96336.53;;;9.76;100.00
58385;BME280;44185;47.844;8.966;2022-10-26T03:05:29;96335.69;;;9.76;100.00
58385;BME280;44185;47.844;8.966;2022-10-26T03:07:55;96342.38;;;9.80;100.00
58385;BME280;44185;47.844;8.966;2022-10-26T03:10:21;96357.75;;;9.86;100.00
58385;BME280;44185;47.844;8.966;2022-10-26T03:12:47;96362.44;;;9.83;100.00
58385;BME280;44185;47.844;8.966;2022-10-26T03:15:12;96354.75;;;9.79;100.00
58385;BME280;44185;47.844;8.966;2022-10-26T03:17:37;96359.56;;;9.74;100.00
58385;BME280;44185;47.844;8.966;2022-10-26T03:20:03;96364.59;;;9.77;100.00
58385;BME280;44185;47.844;8.966;2022-10-26T03:22:28;96365.44;;;9.78;100.00
58385;BME280;44185;47.844;8.966;2022-10-26T03:24:53;96375.19;;;9.77;100.00
58385;BME280;44185;47.844;8.966;2022-10-26T03:27:20;96363.97;;;9.85;100.00
58385;BME280;44185;47.844;8.966;2022-10-26T03:29:45;96373.84;;;9.83;100.00
58385;BME280;44185;47.844;8.966;2022-10-26T03:32:10;96372.28;;;9.81;100.00
58385;BME280;44185;47.844;8.966;2022-10-26T03:34:36;96380.22;;;9.81;100.00
58385;BME280;44185;47.844;8.966;2022-10-26T03:37:01;96377.81;;;9.77;100.00
58385;BME280;44185;47.844;8.966;2022-10-26T03:39:26;96372.44;;;9.79;100.00
58385;BME280;44185;47.844;8.966;2022-10-26T03:41:51;96350.44;;;9.78;100.00
58385;BME280;44185;47.844;8.966;2022-10-26T03:44:18;96362.34;;;9.73;100.00
58385;BME280;44185;47.844;8.966;2022-10-26T03:46:43;96366.91;;;9.71;100.00
58385;BME280;44185;47.844;8.966;2022-10-26T03:49:08;96362.81;;;9.66;100.00
58385;BME280;44185;47.844;8.966;2022-10-26T03:51:34;96360.19;;;9.66;100.00
58385;BME280;44185;47.844;8.966;2022-10-26T03:53:59;96344.69;;;9.73;100.00
58385;BME280;44185;47.844;8.966;2022-10-26T03:56:24;96359.09;;;9.69;100.00
58385;BME280;44185;47.844;8.966;2022-10-26T03:58:49;96358.63;;;9.64;100.00
58385;BME280;44185;47.844;8.966;2022-10-26T04:01:16;96374.75;;;9.61;100.00
58385;BME280;44185;47.844;8.966;2022-10-26T04:03:41;96385.28;;;9.72;100.00
58385;BME280;44185;47.844;8.966;2022-10-26T04:06:06;96385.28;;;9.72;100.00
58385;BME280;44185;47.844;8.966;2022-10-26T04:08:32;96387.94;;;9.72;100.00
58385;BME280;44185;47.844;8.966;2022-10-26T04:10:57;96392.03;;;9.76;100.00
58385;BME280;44185;47.844;8.966;2022-10-26T04:13:22;96376.97;;;9.77;100.00
58385;BME280;44185;47.844;8.966;2022-10-26T04:15:48;96381.44;;;9.76;100.00
58385;BME280;44185;47.844;8.966;2022-10-26T04:18:15;96376.88;;;9.67;100.00
58385;BME280;44185;47.844;8.966;2022-10-26T04:20:40;96381.31;;;9.66;100.00
58385;BME280;44185;47.844;8.966;2022-10-26T04:23:06;96387.44;;;9.67;100.00
58385;BME280;44185;47.844;8.966;2022-10-26T04:25:32;96386.59;;;9.66;100.00
58385;BME280;44185;47.844;8.966;2022-10-26T04:27:57;96389.25;;;9.66;100.00
58385;BME280;44185;47.844;8.966;2022-10-26T04:30:23;96401.38;;;9.69;100.00
58385;BME280;44185;47.844;8.966;2022-10-26T04:32:48;96412.47;;;9.63;100.00
58385;BME280;44185;47.844;8.966;2022-10-26T04:35:15;96414.59;;;9.69;100.00
58385;BME280;44185;47.844;8.966;2022-10-26T04:37:40;96428.78;;;9.68;100.00
58385;BME280;44185;47.844;8.966;2022-10-26T04:40:05;96423.25;;;9.71;100.00
58385;BME280;44185;47.844;8.966;2022-10-26T04:42:31;96433.69;;;9.73;100.00
58385;BME280;44185;47.844;8.966;2022-10-26T04:45:04;96426.47;;;9.75;100.00
58385;BME280;44185;47.844;8.966;2022-10-26T04:47:29;96420.72;;;9.81;100.00
58385;BME280;44185;47.844;8.966;2022-10-26T04:49:54;96423.22;;;9.83;100.00
58385;BME280;44185;47.844;8.966;2022-10-26T04:52:21;96411.81;;;9.82;100.00
58385;BME280;44185;47.844;8.966;2022-10-26T04:54:46;96405.47;;;9.73;100.00
58385;BME280;44185;47.844;8.966;2022-10-26T04:57:11;96404.28;;;9.66;100.00
58385;BME280;44185;47.844;8.966;2022-10-26T04:59:36;96403.69;;;9.62;100.00
58385;BME280;44185;47.844;8.966;2022-10-26T05:02:02;96419.31;;;9.65;100.00
58385;BME280;44185;47.844;8.966;2022-10-26T05:04:27;96422.78;;;9.66;100.00
58385;BME280;44185;47.844;8.966;2022-10-26T05:06:52;96423.13;;;9.73;100.00
58385;BME280;44185;47.844;8.966;2022-10-26T05:09:19;96413.41;;;9.73;100.00
58385;BME280;44185;47.844;8.966;2022-10-26T05:11:44;96415.69;;;9.66;100.00
58385;BME280;44185;47.844;8.966;2022-10-26T05:14:09;96414.00;;;9.54;100.00
58385;BME280;44185;47.844;8.966;2022-10-26T05:16:34;96415.09;;;9.51;100.00
58385;BME280;44185;47.844;8.966;2022-10-26T05:19:00;96425.56;;;9.41;100.00
58385;BME280;44185;47.844;8.966;2022-10-26T05:21:25;96421.13;;;9.42;100.00
58385;BME280;44185;47.844;8.966;2022-10-26T05:23:50;96429.50;;;9.36;100.00
58385;BME280;44185;47.844;8.966;2022-10-26T05:26:17;96423.28;;;9.37;100.00
58385;BME280;44185;47.844;8.966;2022-10-26T05:28:43;96437.44;;;9.36;100.00
58385;BME280;44185;47.844;8.966;2022-10-26T05:31:08;96432.03;;;9.37;100.00
58385;BME280;44185;47.844;8.966;2022-10-26T05:33:33;96433.22;;;9.33;100.00
58385;BME280;44185;47.844;8.966;2022-10-26T05:35:58;96434.06;;;9.45;100.00
58385;BME280;44185;47.844;8.966;2022-10-26T05:38:24;96432.75;;;9.51;100.00
58385;BME280;44185;47.844;8.966;2022-10-26T05:40:49;96435.75;;;9.57;100.00
58385;BME280;44185;47.844;8.966;2022-10-26T05:43:16;96434.19;;;9.55;100.00
58385;BME280;44185;47.844;8.966;2022-10-26T05:45:42;96423.41;;;9.58;100.00
58385;BME280;44185;47.844;8.966;2022-10-26T05:48:07;96415.47;;;9.58;100.00
58385;BME280;44185;47.844;8.966;2022-10-26T05:50:32;96415.56;;;9.56;100.00
58385;BME280;44185;47.844;8.966;2022-10-26T05:52:57;96408.50;;;9.57;100.00
58385;BME280;44185;47.844;8.966;2022-10-26T05:55:23;96381.38;;;9.55;100.00
58385;BME280;44185;47.844;8.966;2022-10-26T05:57:48;96366.84;;;9.49;100.00
58385;BME280;44185;47.844;8.966;2022-10-26T06:00:16;96342.47;;;9.45;100.00
58385;BME280;44185;47.844;8.966;2022-10-26T06:02:43;96346.56;;;9.38;100.00
58385;BME280;44185;47.844;8.966;2022-10-26T06:05:13;96373.81;;;9.39;100.00
58385;BME280;44185;47.844;8.966;2022-10-26T06:07:41;96371.13;;;9.50;100.00
58385;BME280;44185;47.844;8.966;2022-10-26T06:10:08;96383.88;;;9.56;100.00
58385;BME280;44185;47.844;8.966;2022-10-26T06:12:35;96391.78;;;9.56;100.00
58385;BME280;44185;47.844;8.966;2022-10-26T06:15:00;96409.44;;;9.56;100.00
58385;BME280;44185;47.844;8.966;2022-10-26T06:17:34;96406.69;;;9.57;100.00
58385;BME280;44185;47.844;8.966;2022-10-26T06:22:46;96432.28;;;9.57;100.00
58385;BME280;44185;47.844;8.966;2022-10-26T06:25:18;96458.56;;;9.59;100.00
58385;BME280;44185;47.844;8.966;2022-10-26T06:27:50;96466.97;;;9.64;100.00
58385;BME280;44185;47.844;8.966;2022-10-26T06:30:20;96458.47;;;9.60;100.00
58385;BME280;44185;47.844;8.966;2022-10-26T06:32:47;96453.66;;;9.65;100.00
58385;BME280;44185;47.844;8.966;2022-10-26T06:35:22;96445.72;;;9.65;100.00
58385;BME280;44185;47.844;8.966;2022-10-26T06:37:49;96450.03;;;9.66;100.00
58385;BME280;44185;47.844;8.966;2022-10-26T06:40:16;96462.75;;;9.61;100.00
58385;BME280;44185;47.844;8.966;2022-10-26T06:42:41;96457.38;;;9.63;100.00
58385;BME280;44185;47.844;8.966;2022-10-26T06:45:10;96456.88;;;9.69;100.00
58385;BME280;44185;47.844;8.966;2022-10-26T06:47:36;96460.25;;;9.71;100.00
58385;BME280;44185;47.844;8.966;2022-10-26T06:50:06;96473.94;;;9.65;100.00
58385;BME280;44185;47.844;8.966;2022-10-26T06:52:36;96478.50;;;9.63;100.00
58385;BME280;44185;47.844;8.966;2022-10-26T06:55:04;96469.03;;;9.60;100.00
58385;BME280;44185;47.844;8.966;2022-10-26T06:57:31;96468.03;;;9.61;100.00
58385;BME280;44185;47.844;8.966;2022-10-26T06:59:58;96471.66;;;9.60;100.00
58385;BME280;44185;47.844;8.966;2022-10-26T07:02:25;96479.22;;;9.65;100.00
58385;BME280;44185;47.844;8.966;2022-10-26T07:04:51;96498.19;;;9.70;100.00
58385;BME280;44185;47.844;8.966;2022-10-26T07:07:18;96486.88;;;9.79;100.00
58385;BME280;44185;47.844;8.966;2022-10-26T07:09:44;96480.66;;;9.81;100.00
58385;BME280;44185;47.844;8.966;2022-10-26T07:12:09;96471.66;;;9.83;100.00
58385;BME280;44185;47.844;8.966;2022-10-26T07:14:34;96491.84;;;9.84;100.00
58385;BME280;44185;47.844;8.966;2022-10-26T07:16:59;96483.41;;;9.90;100.00
58385;BME280;44185;47.844;8.966;2022-10-26T07:19:25;96497.94;;;9.85;100.00
58385;BME280;44185;47.844;8.966;2022-10-26T07:21:50;96501.31;;;9.87;100.00
58385;BME280;44185;47.844;8.966;2022-10-26T07:24:17;96511.06;;;9.98;100.00
58385;BME280;44185;47.844;8.966;2022-10-26T07:26:42;96508.75;;;9.93;100.00
58385;BME280;44185;47.844;8.966;2022-10-26T07:29:08;96514.03;;;9.93;100.00
58385;BME280;44185;47.844;8.966;2022-10-26T07:31:33;96506.63;;;9.87;100.00
58385;BME280;44185;47.844;8.966;2022-10-26T07:33:58;96519.94;;;9.97;100.00
58385;BME280;44185;47.844;8.966;2022-10-26T07:36:24;96519.31;;;10.05;100.00
58385;BME280;44185;47.844;8.966;2022-10-26T07:38:50;96509.09;;;10.11;100.00
58385;BME280;44185;47.844;8.966;2022-10-26T07:41:17;96513.56;;;10.11;100.00
58385;BME280;44185;47.844;8.966;2022-10-26T07:43:42;96511.00;;;10.21;100.00
58385;BME280;44185;47.844;8.966;2022-10-26T07:46:07;96511.81;;;10.33;100.00
58385;BME280;44185;47.844;8.966;2022-10-26T07:48:32;96521.78;;;10.41;100.00
58385;BME280;44185;47.844;8.966;2022-10-26T07:50:59;96523.47;;;10.53;100.00
58385;BME280;44185;47.844;8.966;2022-10-26T07:53:24;96528.47;;;10.68;100.00
58385;BME280;44185;47.844;8.966;2022-10-26T07:55:53;96524.31;;;10.87;100.00
58385;BME280;44185;47.844;8.966;2022-10-26T07:58:20;96523.88;;;11.03;100.00
58385;BME280;44185;47.844;8.966;2022-10-26T08:00:45;96528.97;;;11.16;100.00
58385;BME280;44185;47.844;8.966;2022-10-26T08:03:10;96539.38;;;11.29;100.00
58385;BME280;44185;47.844;8.966;2022-10-26T08:05:35;96536.94;;;11.38;100.00
58385;BME280;44185;47.844;8.966;2022-10-26T08:08:01;96535.44;;;11.45;100.00
58385;BME280;44185;47.844;8.966;2022-10-26T08:10:26;96538.13;;;11.55;100.00
58385;BME280;44185;47.844;8.966;2022-10-26T08:12:51;96537.88;;;11.58;100.00
58385;BME280;44185;47.844;8.966;2022-10-26T08:15:18;96542.66;;;11.64;100.00
58385;BME280;44185;47.844;8.966;2022-10-26T08:17:43;96545.16;;;11.66;100.00
58385;BME280;44185;47.844;8.966;2022-10-26T08:20:09;96546.72;;;11.68;100.00
58385;BME280;44185;47.844;8.966;2022-10-26T08:22:34;96550.66;;;11.74;100.00
58385;BME280;44185;47.844;8.966;2022-10-26T08:24:59;96554.00;;;11.76;100.00
58385;BME280;44185;47.844;8.966;2022-10-26T08:27:24;96556.25;;;11.81;100.00
58385;BME280;44185;47.844;8.966;2022-10-26T08:29:50;96554.03;;;11.86;100.00
58385;BME280;44185;47.844;8.966;2022-10-26T08:32:16;96554.66;;;12.00;100.00
58385;BME280;44185;47.844;8.966;2022-10-26T08:34:41;96558.34;;;12.09;100.00
58385;BME280;44185;47.844;8.966;2022-10-26T08:37:07;96555.47;;;12.22;100.00
58385;BME280;44185;47.844;8.966;2022-10-26T08:39:32;96557.59;;;12.28;100.00
58385;BME280;44185;47.844;8.966;2022-10-26T08:42:00;96567.22;;;12.29;100.00
58385;BME280;44185;47.844;8.966;2022-10-26T08:44:28;96568.50;;;12.35;100.00
58385;BME280;44185;47.844;8.966;2022-10-26T08:46:56;96568.94;;;12.40;100.00
58385;BME280;44185;47.844;8.966;2022-10-26T08:49:24;96573.44;;;12.50;100.00
58385;BME280;44185;47.844;8.966;2022-10-26T08:51:52;96574.00;;;12.63;100.00
58385;BME280;44185;47.844;8.966;2022-10-26T08:54:21;96577.97;;;12.79;100.00
58385;BME280;44185;47.844;8.966;2022-10-26T08:56:49;96580.91;;;12.96;100.00
58385;BME280;44185;47.844;8.966;2022-10-26T08:59:17;96581.59;;;12.98;100.00
58385;BME280;44185;47.844;8.966;2022-10-26T09:01:44;96569.31;;;12.97;100.00
58385;BME280;44185;47.844;8.966;2022-10-26T09:04:10;96572.50;;;13.00;100.00
58385;BME280;44185;47.844;8.966;2022-10-26T09:06:39;96574.06;;;13.13;100.00
58385;BME280;44185;47.844;8.966;2022-10-26T09:09:08;96574.34;;;13.20;100.00
58385;BME280;44185;47.844;8.966;2022-10-26T09:11:39;96573.75;;;13.36;100.00
58385;BME280;44185;47.844;8.966;2022-10-26T09:14:11;96582.56;;;13.46;100.00
58385;BME280;44185;47.844;8.966;2022-10-26T09:16:39;96575.56;;;13.55;100.00
58385;BME280;44185;47.844;8.966;2022-10-26T09:19:19;96582.16;;;13.61;100.00
58385;BME280;44185;47.844;8.966;2022-10-26T09:21:49;96578.91;;;13.67;100.00
58385;BME280;44185;47.844;8.966;2022-10-26T09:24:18;96581.41;;;13.79;100.00
58385;BME280;44185;47.844;8.966;2022-10-26T09:26:51;96577.31;;;13.95;100.00
58385;BME280;44185;47.844;8.966;2022-10-26T09:29:17;96587.22;;;14.03;100.00
58385;BME280;44185;47.844;8.966;2022-10-26T09:31:43;96582.69;;;14.13;100.00
58385;BME280;44185;47.844;8.966;2022-10-26T09:34:13;96584.97;;;14.36;100.00
58385;BME280;44185;47.844;8.966;2022-10-26T09:36:41;96582.41;;;14.44;100.00
58385;BME280;44185;47.844;8.966;2022-10-26T09:39:11;96584.19;;;14.54;100.00
58385;BME280;44185;47.844;8.966;2022-10-26T09:41:40;96582.31;;;14.64;100.00
58385;BME280;44185;47.844;8.966;2022-10-26T09:44:10;96591.44;;;14.62;100.00
58385;BME280;44185;47.844;8.966;2022-10-26T09:46:43;96597.53;;;14.72;100.00
58385;BME280;44185;47.844;8.966;2022-10-26T09:49:10;96594.50;;;14.85;100.00
58385;BME280;44185;47.844;8.966;2022-10-26T09:51:37;96594.56;;;15.04;100.00
58385;BME280;44185;47.844;8.966;2022-10-26T09:54:04;96601.50;;;15.15;100.00
58385;BME280;44185;47.844;8.966;2022-10-26T09:56:31;96600.34;;;15.17;100.00
58385;BME280;44185;47.844;8.966;2022-10-26T09:58:57;96602.38;;;15.23;100.00
58385;BME280;44185;47.844;8.966;2022-10-26T10:01:27;96599.03;;;15.40;100.00
58385;BME280;44185;47.844;8.966;2022-10-26T10:04:05;96607.09;;;15.48;100.00
58385;BME280;44185;47.844;8.966;2022-10-26T10:06:32;96605.06;;;15.42;100.00
58385;BME280;44185;47.844;8.966;2022-10-26T10:09:03;96618.69;;;15.57;100.00
58385;BME280;44185;47.844;8.966;2022-10-26T10:11:37;96612.13;;;15.51;100.00
58385;BME280;44185;47.844;8.966;2022-10-26T10:14:04;96614.19;;;15.57;100.00
58385;BME280;44185;47.844;8.966;2022-10-26T10:16:30;96620.00;;;15.79;100.00
58385;BME280;44185;47.844;8.966;2022-10-26T10:18:56;96615.19;;;15.83;100.00
58385;BME280;44185;47.844;8.966;2022-10-26T10:21:22;96622.78;;;15.96;100.00
58385;BME280;44185;47.844;8.966;2022-10-26T10:23:57;96616.47;;;15.97;100.00
58385;BME280;44185;47.844;8.966;2022-10-26T10:26:22;96629.47;;;16.00;100.00
58385;BME280;44185;47.844;8.966;2022-10-26T10:28:56;96626.78;;;16.00;100.00
58385;BME280;44185;47.844;8.966;2022-10-26T10:31:26;96620.72;;;16.08;100.00
58385;BME280;44185;47.844;8.966;2022-10-26T10:33:51;96624.44;;;16.16;100.00
58385;BME280;44185;47.844;8.966;2022-10-26T10:36:17;96618.34;;;16.32;100.00
58385;BME280;44185;47.844;8.966;2022-10-26T10:38:43;96623.75;;;16.49;100.00
58385;BME280;44185;47.844;8.966;2022-10-26T10:41:17;96627.59;;;16.54;100.00
58385;BME280;44185;47.844;8.966;2022-10-26T10:43:44;96627.47;;;16.56;100.00
58385;BME280;44185;47.844;8.966;2022-10-26T10:46:15;96627.38;;;16.39;100.00
58385;BME280;44185;47.844;8.966;2022-10-26T10:48:44;96626.72;;;16.37;100.00
58385;BME280;44185;47.844;8.966;2022-10-26T10:51:10;96636.88;;;16.33;100.00
58385;BME280;44185;47.844;8.966;2022-10-26T10:53:36;96633.09;;;16.44;100.00
58385;BME280;44185;47.844;8.966;2022-10-26T10:56:05;96634.81;;;16.62;100.00
58385;BME280;44185;47.844;8.966;2022-10-26T10:58:36;96638.38;;;16.71;100.00
58385;BME280;44185;47.844;8.966;2022-10-26T11:01:04;96626.66;;;16.72;100.00
58385;BME280;44185;47.844;8.966;2022-10-26T11:03:42;96633.16;;;16.70;100.00
58385;BME280;44185;47.844;8.966;2022-10-26T11:06:13;96631.38;;;16.78;100.00
58385;BME280;44185;47.844;8.966;2022-10-26T11:08:41;96635.59;;;16.89;100.00
58385;BME280;44185;47.844;8.966;2022-10-26T11:11:08;96635.78;;;17.05;100.00
58385;BME280;44185;47.844;8.966;2022-10-26T11:13:36;96637.63;;;17.12;100.00
58385;BME280;44185;47.844;8.966;2022-10-26T11:16:04;96639.13;;;17.15;100.00
58385;BME280;44185;47.844;8.966;2022-10-26T11:18:32;96640.53;;;17.19;100.00
58385;BME280;44185;47.844;8.966;2022-10-26T11:21:01;96635.53;;;17.25;99.42
58385;BME280;44185;47.844;8.966;2022-10-26T11:23:30;96637.53;;;17.31;99.97
58385;BME280;44185;47.844;8.966;2022-10-26T11:26:02;96636.88;;;17.37;98.24
58385;BME280;44185;47.844;8.966;2022-10-26T11:28:32;96639.22;;;17.40;96.61
58385;BME280;44185;47.844;8.966;2022-10-26T11:30:59;96639.22;;;17.40;98.49
58385;BME280;44185;47.844;8.966;2022-10-26T11:33:26;96638.72;;;17.53;97.83
58385;BME280;44185;47.844;8.966;2022-10-26T11:35:55;96651.06;;;17.54;97.43
58385;BME280;44185;47.844;8.966;2022-10-26T11:38:25;96643.22;;;17.53;96.20
58385;BME280;44185;47.844;8.966;2022-10-26T11:40:54;96642.06;;;17.55;95.45
58385;BME280;44185;47.844;8.966;2022-10-26T11:43:22;96647.09;;;17.67;96.11
58385;BME280;44185;47.844;8.966;2022-10-26T11:45:56;96648.41;;;17.71;94.71
58385;BME280;44185;47.844;8.966;2022-10-26T11:48:27;96648.09;;;17.83;94.56
58385;BME280;44185;47.844;8.966;2022-10-26T11:50:55;96647.38;;;17.89;93.66
58385;BME280;44185;47.844;8.966;2022-10-26T11:53:23;96644.88;;;18.04;92.50
58385;BME280;44185;47.844;8.966;2022-10-26T11:55:51;96649.06;;;18.07;93.20
58385;BME280;44185;47.844;8.966;2022-10-26T11:58:17;96652.19;;;18.19;92.91
58385;BME280;44185;47.844;8.966;2022-10-26T12:00:43;96653.53;;;18.31;91.16
58385;BME280;44185;47.844;8.966;2022-10-26T12:03:10;96648.19;;;18.31;91.11
58385;BME280;44185;47.844;8.966;2022-10-26T12:05:41;96650.38;;;18.19;93.73
58385;BME280;44185;47.844;8.966;2022-10-26T12:08:10;96651.38;;;18.35;91.26
58385;BME280;44185;47.844;8.966;2022-10-26T12:10:36;96652.66;;;18.48;90.68
58385;BME280;44185;47.844;8.966;2022-10-26T12:13:08;96651.63;;;18.57;92.71
58385;BME280;44185;47.844;8.966;2022-10-26T12:15:39;96656.16;;;18.56;90.58
58385;BME280;44185;47.844;8.966;2022-10-26T12:18:09;96656.78;;;18.67;92.70
58385;BME280;44185;47.844;8.966;2022-10-26T12:20:53;96652.41;;;18.66;91.56
58385;BME280;44185;47.844;8.966;2022-10-26T12:23:19;96654.56;;;18.79;89.89
58385;BME280;44185;47.844;8.966;2022-10-26T12:25:46;96647.34;;;18.79;85.78
58385;BME280;44185;47.844;8.966;2022-10-26T12:31:41;96653.25;;;19.07;87.67
58385;BME280;44185;47.844;8.966;2022-10-26T12:33:47;96654.38;;;19.12;89.55
58385;BME280;44185;47.844;8.966;2022-10-26T12:38:56;96657.91;;;19.21;85.92
58385;BME280;44185;47.844;8.966;2022-10-26T12:41:23;96657.06;;;19.21;86.90
58385;BME280;44185;47.844;8.966;2022-10-26T12:43:48;96653.50;;;19.29;84.69
58385;BME280;44185;47.844;8.966;2022-10-26T12:51:47;96658.56;;;19.15;85.96
58385;BME280;44185;47.844;8.966;2022-10-26T12:54:15;96662.78;;;19.41;88.06
58385;BME280;44185;47.844;8.966;2022-10-26T12:56:48;96657.22;;;19.43;86.48
58385;BME280;44185;47.844;8.966;2022-10-26T12:59:19;96653.97;;;19.56;84.94
58385;BME280;44185;47.844;8.966;2022-10-26T13:02:01;96660.16;;;19.56;86.45
58385;BME280;44185;47.844;8.966;2022-10-26T13:07:20;96661.25;;;19.86;85.14
58385;BME280;44185;47.844;8.966;2022-10-26T13:09:51;96664.69;;;19.80;82.56
58385;BME280;44185;47.844;8.966;2022-10-26T13:12:18;96656.16;;;19.76;82.45
58385;BME280;44185;47.844;8.966;2022-10-26T13:14:52;96657.28;;;19.82;82.89
58385;BME280;44185;47.844;8.966;2022-10-26T13:17:21;96659.84;;;19.75;81.80
58385;BME280;44185;47.844;8.966;2022-10-26T13:19:47;96654.44;;;19.60;81.50